Time,TemperatureF,DewpointF,PressureIn,WindDirection,WindDirectionDegrees,WindSpeedMPH,WindSpeedGustMPH,Humidity,HourlyPrecipIn,Conditions,Clouds,dailyrainin,SolarRadiationWatts/m^2,SoftwareType,DateUTC
2013-10-22 00:42:00,66.0,34.0,-100.00,WNW,285,0.0,0.0,30,0.00,,,0.00,0.000000,,2013-10-22 07:42:00,
2013-10-22 01:22:00,67.0,33.0,-100.00,West,261,0.0,0.0,28,-99.99,,,0.00,0.000000,,2013-10-22 08:22:00,
2013-10-22 01:32:00,67.0,33.0,-100.00,West,261,0.0,0.0,28,-99.99,,,0.00,0.000000,,2013-10-22 08:32:00,
2013-10-22 01:42:00,67.0,33.0,-100.00,West,261,0.0,0.0,28,-99.99,,,0.00,0.000000,,2013-10-22 08:42:00,
2013-10-22 04:42:00,65.0,33.0,-100.00,SSE,159,1.0,3.0,30,-99.99,,,0.00,0.000000,,2013-10-22 11:42:00,
2013-10-22 04:52:00,65.0,33.0,-100.00,SSE,159,1.0,3.0,30,-99.99,,,0.00,0.000000,,2013-10-22 11:52:00,
2013-10-22 05:01:00,65.0,33.0,-100.00,SSE,159,1.0,3.0,30,-99.99,,,0.00,0.000000,,2013-10-22 12:01:00,
2013-10-22 05:42:00,63.0,36.0,-100.00,East,80,3.0,6.0,36,-99.99,,,0.00,0.000000,,2013-10-22 12:42:00,
2013-10-22 06:42:00,64.0,39.0,-100.00,ENE,63,5.0,5.0,40,0.00,,,0.00,0.000000,,2013-10-22 13:42:00,
2013-10-22 07:42:00,64.0,40.0,-100.00,NE,51,6.0,7.0,41,-99.99,,,-99.99,0.000000,,2013-10-22 14:42:00,
2013-10-22 07:52:00,64.0,40.0,-100.00,NE,51,6.0,7.0,41,-99.99,,,-99.99,0.000000,,2013-10-22 14:52:00,
2013-10-22 08:01:00,64.0,40.0,-100.00,NE,51,6.0,7.0,41,-99.99,,,-99.99,0.000000,,2013-10-22 15:01:00,
2013-10-22 08:22:00,66.0,41.0,-100.00,NE,55,6.0,8.0,40,-99.99,,,0.00,19.000000,,2013-10-22 15:22:00,
2013-10-22 08:33:00,66.0,41.0,-100.00,NE,55,6.0,8.0,40,-99.99,,,0.00,19.000000,,2013-10-22 15:33:00,
2013-10-22 09:02:00,68.0,41.0,-100.00,ENE,72,6.0,8.0,38,-99.99,,,0.00,174.000000,,2013-10-22 16:02:00,
2013-10-22 09:23:00,68.0,41.0,-100.00,ENE,72,6.0,8.0,38,-99.99,,,0.00,174.000000,,2013-10-22 16:23:00,
2013-10-22 09:33:00,68.0,41.0,-100.00,ENE,72,6.0,8.0,38,-99.99,,,0.00,174.000000,,2013-10-22 16:33:00,
2013-10-22 09:43:00,68.0,41.0,-100.00,ENE,72,6.0,8.0,38,-99.99,,,0.00,174.000000,,2013-10-22 16:43:00,
2013-10-22 09:53:00,68.0,41.0,-100.00,ENE,72,6.0,8.0,38,-99.99,,,0.00,174.000000,,2013-10-22 16:53:00,
2013-10-22 12:02:00,72.0,37.0,-100.00,NE,51,7.0,11.0,28,-99.99,,,0.00,626.000000,,2013-10-22 19:02:00,
2013-10-22 12:22:00,72.0,37.0,-100.00,NE,51,7.0,11.0,28,-99.99,,,0.00,626.000000,,2013-10-22 19:22:00,
2013-10-22 12:32:00,72.0,37.0,-100.00,NE,51,7.0,11.0,28,-99.99,,,0.00,626.000000,,2013-10-22 19:32:00,
2013-10-22 12:42:00,72.0,37.0,-100.00,NE,51,7.0,11.0,28,-99.99,,,0.00,626.000000,,2013-10-22 19:42:00,
2013-10-22 12:52:00,72.0,37.0,-100.00,NE,51,7.0,11.0,28,-99.99,,,0.00,626.000000,,2013-10-22 19:52:00,
2013-10-22 13:02:00,75.0,39.0,-100.00,ENE,59,6.0,10.0,27,0.00,,,0.00,682.000000,,2013-10-22 20:02:00,
2013-10-22 13:22:00,75.0,39.0,-100.00,ENE,59,6.0,10.0,27,0.00,,,0.00,682.000000,,2013-10-22 20:22:00,
2013-10-22 13:32:00,75.0,39.0,-100.00,ENE,59,6.0,10.0,27,0.00,,,0.00,682.000000,,2013-10-22 20:32:00,
2013-10-22 13:43:00,75.0,39.0,-100.00,ENE,59,6.0,10.0,27,0.00,,,0.00,682.000000,,2013-10-22 20:43:00,
2013-10-22 13:52:00,75.0,39.0,-100.00,ENE,59,6.0,10.0,27,0.00,,,0.00,682.000000,,2013-10-22 20:52:00,
2013-10-22 14:02:00,75.0,42.0,-100.00,NE,55,6.0,10.0,31,0.00,,,0.00,673.000000,,2013-10-22 21:02:00,
2013-10-22 14:44:00,75.0,42.0,-100.00,NE,55,6.0,10.0,31,0.00,,,0.00,673.000000,,2013-10-22 21:44:00,
2013-10-22 14:54:00,75.0,42.0,-100.00,NE,55,6.0,10.0,31,0.00,,,0.00,673.000000,,2013-10-22 21:54:00,
2013-10-22 15:02:00,76.0,41.0,-100.00,ENE,70,6.0,11.0,29,0.00,,,0.00,602.000000,,2013-10-22 22:02:00,
2013-10-22 15:44:00,76.0,41.0,-100.00,ENE,70,6.0,11.0,29,0.00,,,0.00,602.000000,,2013-10-22 22:44:00,
2013-10-22 15:54:00,76.0,41.0,-100.00,ENE,70,6.0,11.0,29,0.00,,,0.00,602.000000,,2013-10-22 22:54:00,
2013-10-22 16:02:00,75.0,41.0,-100.00,East,85,4.0,10.0,29,0.00,,,0.00,477.000000,,2013-10-22 23:02:00,
2013-10-22 16:43:00,75.0,41.0,-100.00,East,85,4.0,10.0,29,0.00,,,0.00,477.000000,,2013-10-22 23:43:00,
2013-10-22 16:53:00,75.0,41.0,-100.00,East,85,4.0,10.0,29,0.00,,,0.00,477.000000,,2013-10-22 23:53:00,
2013-10-22 17:02:00,74.0,41.0,-100.00,ESE,120,1.0,6.0,30,0.00,,,0.00,308.000000,,2013-10-23 00:02:00,
2013-10-22 17:22:00,74.0,41.0,-100.00,ESE,120,1.0,6.0,30,0.00,,,0.00,308.000000,,2013-10-23 00:22:00,
2013-10-22 17:32:00,74.0,41.0,-100.00,ESE,120,1.0,6.0,30,0.00,,,0.00,308.000000,,2013-10-23 00:32:00,
2013-10-22 17:42:00,74.0,41.0,-100.00,ESE,120,1.0,6.0,30,0.00,,,0.00,308.000000,,2013-10-23 00:42:00,
2013-10-22 17:52:00,74.0,41.0,-100.00,ESE,120,1.0,6.0,30,0.00,,,0.00,308.000000,,2013-10-23 00:52:00,
2013-10-22 18:02:00,71.0,40.0,-100.00,WSW,253,1.0,5.0,32,0.00,,,0.00,55.000000,,2013-10-23 01:02:00,
2013-10-22 18:42:00,71.0,40.0,-100.00,WSW,253,1.0,5.0,32,0.00,,,0.00,55.000000,,2013-10-23 01:42:00,
2013-10-22 18:52:00,71.0,40.0,-100.00,WSW,253,1.0,5.0,32,0.00,,,0.00,55.000000,,2013-10-23 01:52:00,
2013-10-22 19:02:00,67.0,38.0,-100.00,NW,324,3.0,6.0,35,0.00,,,0.00,4.000000,,2013-10-23 02:02:00,
2013-10-22 19:22:00,67.0,38.0,-100.00,NW,324,3.0,6.0,35,0.00,,,0.00,4.000000,,2013-10-23 02:22:00,
2013-10-22 19:32:00,67.0,38.0,-100.00,NW,324,3.0,6.0,35,0.00,,,0.00,4.000000,,2013-10-23 02:32:00,
2013-10-22 19:42:00,67.0,38.0,-100.00,NW,324,3.0,6.0,35,0.00,,,0.00,4.000000,,2013-10-23 02:42:00,
2013-10-22 19:53:00,67.0,38.0,-100.00,NW,324,3.0,6.0,35,0.00,,,0.00,4.000000,,2013-10-23 02:53:00,
2013-10-22 21:02:00,70.0,29.0,-100.00,NNE,21,4.0,6.0,22,0.00,,,0.00,0.000000,,2013-10-23 04:02:00,
2013-10-22 21:54:00,70.0,29.0,-100.00,NNE,21,4.0,6.0,22,0.00,,,0.00,0.000000,,2013-10-23 04:54:00,